Terminal Aerodrome Forecast
Issued by NWS

Home | Current Version | Previous Version | Text Only | Print | Product List | Glossary On
Versions: 1 2 3 4 5 6 7 8 9 10 11 12 13 14 15 16 17 18 19 20 21 22 23 24 25 26 27 28 29 30 31 32 33
000
FTUS44 KHGX 272145 AAA
TAFLBX
TAF AMD
KLBX 272145Z 2722/2818 02014KT P6SM OVC016
     FM272300 06011KT P6SM BKN030 BKN100
     FM280300 06013KT P6SM BKN035 OVC080
     FM280900 06016KT P6SM BKN020 OVC070
     FM281600 06017KT P6SM SCT020 OVC070=

USA.gov is the U.S. government's official web portal to all federal, state and local government web resources and services.